This demonstration page uses our WeatherBlox Daily Observations layout. Learn more.

Left ArrowRight Arrow

39.92423, -83.80882

Hourly Observations for August 9, 2016

Temp ( °F °C ) Dew Point ( °F °C ) Humidity (%) Winds ( mph kmh ) Pressure ( in mb ) Visibility ( mi km ) Precip ( " mm )
12:56 am 00:56 Clear 69 20.6 62 16.7 78 78 ENE 6 9 N/A 10 16.0934 N/A
1:56 am 01:56 Clear 67 19.4 62 16.7 84 84 N N/A 30.01 1016 10 16.0934 N/A
2:56 am 02:56 Clear 67 19.4 62 16.7 84 84 ENE 5 7 30 1016 10 16.0934 N/A
3:56 am 03:56 Partly Cloudy 66 18.9 62 16.7 87 87 ENE 5 7 N/A 10 16.0934 N/A
4:56 am 04:56 Cloudy 67 19.4 64 17.8 91 91 E 3 6 30 1016 10 16.0934 N/A
5:56 am 05:56 Cloudy 68 20 66 18.9 93 93 E 6 9 30 1016 10 16.0934 N/A
6:56 am 06:56 Mostly Cloudy 68 20 67 19.4 96 96 E 6 9 30.02 1017 10 16.0934 N/A
8:56 am 08:56 Mostly Cloudy 73 22.8 69 20.6 87 87 SE 6 9 N/A 10 16.0934 N/A
9:56 am 09:56 Sunny 77 25 70 21.1 79 79 SSE 7 11 30.04 1017 10 16.0934 N/A
10:56 am 10:56 Cloudy 78 25.6 71 21.7 79 79 SSW 3 6 30.04 1017 10 16.0934 N/A
11:56 am 11:56 Mostly Cloudy 82 27.8 72 22.2 72 72 E 3 6 30.03 1017 10 16.0934 N/A
12:21 pm 12:21 Cloudy 81 27 73 23 79 79 N N/A 30 1016 10 16.0934 N/A
12:56 pm 12:56 Cloudy 83 28.3 74 23.3 74 74 undefined N/A N/A 10 16.0934 N/A
1:07 pm 13:07 Mostly Cloudy 82 28 73 23 74 74 undefined N/A N/A 10 16.0934 N/A
1:56 pm 13:56 Cloudy 85 29.4 73 22.8 68 68 VRB 3 6 N/A 10 16.0934 N/A
2:56 pm 14:56 Mostly Cloudy 88 31.1 74 23.3 63 63 VRB 5 7 N/A 10 16.0934 N/A
3:56 pm 15:56 Mostly Cloudy 86 30 74 23.3 67 67 undefined N/A N/A 10 16.0934 N/A
4:56 pm 16:56 Cloudy 87 30.6 75 23.9 67 67 SE 6 9 29.98 1015 10 16.0934 N/A
5:06 pm 17:06 Cloudy with Nearby Thunderstorms 86 30 73 23 66 66 SSE 12 19 N/A 10 16.0934 N/A
5:24 pm 17:24 Cloudy with Heavy Thunderstorms 75 24 72 22 89 89 undefined N/A N/A 1.75 2.816345 N/A
5:31 pm 17:31 Cloudy with Heavy Thunderstorms 73 23 72 22 94 94 N 8 13 30 1016 1.75 2.816345 N/A
5:35 pm 17:35 Cloudy with Thunderstorms 73 23 72 22 94 94 N 5 7 30 1016 3 4.82802 N/A
5:48 pm 17:48 Cloudy with Light Thunderstorms 73 23 72 22 94 94 N N/A 30 1016 6 9.65604 N/A
5:56 pm 17:56 Cloudy with Light Thunderstorms 75 23.9 73 22.8 94 94 N 7 11 30.01 1016 10 16.0934 N/A
6:37 pm 18:37 Sunny 79 26 73 23 84 84 undefined N/A 29.97 1015 10 16.0934 0.06 1.524
6:56 pm 18:56 Mostly Cloudy 77 25 74 23.3 90 90 ESE 5 7 N/A 10 16.0934 0.08 2.032
7:56 pm 19:56 Partly Cloudy 78 25.6 75 23.9 90 90 undefined N/A N/A 10 16.0934 0.06 1.524
8:56 pm 20:56 Mostly Cloudy 76 24.4 75 23.9 97 97 SE 7 11 30.03 1017 10 16.0934 0.06 1.524
9:56 pm 21:56 Mostly Clear 76 24.4 74 23.3 94 94 S 6 9 30.02 1017 10 16.0934 0.03 0.762
10:56 pm 22:56 Clear 75 23.9 73 22.8 94 94 N N/A 30.05 1018 10 16.0934 0.03 0.762
11:56 pm 23:56 Clear 73 22.8 72 22.2 96 96 SE 3 6 30.05 1018 10 16.0934 0.01 0.254

Powered by AerisWeather